sensor_id;sensor_type;location;lat;lon;timestamp;P1;durP1;ratioP1;P2;durP2;ratioP2
7703;SDS011;3894;49.700;10.770;2024-02-04T00:00:03;3.72;;;1.17;;
7703;SDS011;3894;49.700;10.770;2024-02-04T00:02:30;3.92;;;0.60;;
7703;SDS011;3894;49.700;10.770;2024-02-04T00:04:56;2.63;;;0.45;;
7703;SDS011;3894;49.700;10.770;2024-02-04T00:07:21;6.05;;;1.45;;
7703;SDS011;3894;49.700;10.770;2024-02-04T00:09:47;7.07;;;1.38;;
7703;SDS011;3894;49.700;10.770;2024-02-04T00:12:12;2.33;;;0.28;;
7703;SDS011;3894;49.700;10.770;2024-02-04T00:14:38;2.25;;;0.32;;
7703;SDS011;3894;49.700;10.770;2024-02-04T00:17:03;2.83;;;0.30;;
7703;SDS011;3894;49.700;10.770;2024-02-04T00:19:29;2.78;;;0.52;;
7703;SDS011;3894;49.700;10.770;2024-02-04T00:21:55;1.70;;;0.20;;
7703;SDS011;3894;49.700;10.770;2024-02-04T00:24:20;2.53;;;0.30;;
7703;SDS011;3894;49.700;10.770;2024-02-04T00:26:46;1.95;;;0.30;;
7703;SDS011;3894;49.700;10.770;2024-02-04T00:29:11;2.15;;;0.40;;
7703;SDS011;3894;49.700;10.770;2024-02-04T00:31:37;1.02;;;0.20;;
7703;SDS011;3894;49.700;10.770;2024-02-04T00:34:03;1.10;;;0.20;;
7703;SDS011;3894;49.700;10.770;2024-02-04T00:36:29;4.20;;;0.47;;
7703;SDS011;3894;49.700;10.770;2024-02-04T00:38:55;2.30;;;0.20;;
7703;SDS011;3894;49.700;10.770;2024-02-04T00:41:21;2.45;;;0.32;;
7703;SDS011;3894;49.700;10.770;2024-02-04T00:43:46;1.65;;;0.20;;
7703;SDS011;3894;49.700;10.770;2024-02-04T00:46:12;1.35;;;0.22;;
7703;SDS011;3894;49.700;10.770;2024-02-04T00:48:37;2.45;;;0.30;;
7703;SDS011;3894;49.700;10.770;2024-02-04T00:51:05;2.38;;;0.60;;
7703;SDS011;3894;49.700;10.770;2024-02-04T00:53:31;3.20;;;0.30;;
7703;SDS011;3894;49.700;10.770;2024-02-04T00:56:02;1.88;;;0.13;;
7703;SDS011;3894;49.700;10.770;2024-02-04T00:58:28;1.63;;;0.20;;
7703;SDS011;3894;49.700;10.770;2024-02-04T01:00:54;5.32;;;0.30;;
7703;SDS011;3894;49.700;10.770;2024-02-04T01:03:19;2.25;;;0.20;;
7703;SDS011;3894;49.700;10.770;2024-02-04T01:05:45;1.48;;;0.32;;
7703;SDS011;3894;49.700;10.770;2024-02-04T01:08:10;2.03;;;0.13;;
7703;SDS011;3894;49.700;10.770;2024-02-04T01:10:36;2.60;;;0.30;;
7703;SDS011;3894;49.700;10.770;2024-02-04T01:13:01;1.92;;;0.20;;
7703;SDS011;3894;49.700;10.770;2024-02-04T01:15:28;3.55;;;0.32;;
7703;SDS011;3894;49.700;10.770;2024-02-04T01:17:53;3.60;;;0.45;;
7703;SDS011;3894;49.700;10.770;2024-02-04T01:20:19;2.55;;;0.35;;
7703;SDS011;3894;49.700;10.770;2024-02-04T01:22:44;2.50;;;0.50;;
7703;SDS011;3894;49.700;10.770;2024-02-04T01:25:10;2.55;;;0.40;;
7703;SDS011;3894;49.700;10.770;2024-02-04T01:27:35;2.25;;;0.30;;
7703;SDS011;3894;49.700;10.770;2024-02-04T01:30:01;4.57;;;0.43;;
7703;SDS011;3894;49.700;10.770;2024-02-04T01:32:27;2.00;;;0.30;;
7703;SDS011;3894;49.700;10.770;2024-02-04T01:34:52;3.13;;;0.50;;
7703;SDS011;3894;49.700;10.770;2024-02-04T01:37:18;2.13;;;0.40;;
7703;SDS011;3894;49.700;10.770;2024-02-04T01:39:43;2.78;;;0.40;;
7703;SDS011;3894;49.700;10.770;2024-02-04T01:42:09;3.22;;;0.35;;
7703;SDS011;3894;49.700;10.770;2024-02-04T01:44:35;1.40;;;0.15;;
7703;SDS011;3894;49.700;10.770;2024-02-04T01:47:01;1.60;;;0.20;;
7703;SDS011;3894;49.700;10.770;2024-02-04T01:49:26;2.00;;;0.20;;
7703;SDS011;3894;49.700;10.770;2024-02-04T01:51:52;3.00;;;0.40;;
7703;SDS011;3894;49.700;10.770;2024-02-04T01:54:18;3.25;;;0.52;;
7703;SDS011;3894;49.700;10.770;2024-02-04T01:56:49;2.15;;;0.30;;
7703;SDS011;3894;49.700;10.770;2024-02-04T01:59:15;2.70;;;0.68;;
7703;SDS011;3894;49.700;10.770;2024-02-04T02:01:41;2.67;;;0.52;;
7703;SDS011;3894;49.700;10.770;2024-02-04T02:06:34;2.60;;;0.80;;
7703;SDS011;3894;49.700;10.770;2024-02-04T02:09:06;2.42;;;0.35;;
7703;SDS011;3894;49.700;10.770;2024-02-04T02:11:45;3.90;;;0.55;;
7703;SDS011;3894;49.700;10.770;2024-02-04T02:14:17;3.60;;;0.57;;
7703;SDS011;3894;49.700;10.770;2024-02-04T02:16:48;2.45;;;0.65;;
7703;SDS011;3894;49.700;10.770;2024-02-04T02:19:22;4.25;;;0.60;;
7703;SDS011;3894;49.700;10.770;2024-02-04T02:22:38;1.65;;;0.32;;
7703;SDS011;3894;49.700;10.770;2024-02-04T02:25:04;2.95;;;0.50;;
7703;SDS011;3894;49.700;10.770;2024-02-04T02:27:31;4.05;;;0.73;;
7703;SDS011;3894;49.700;10.770;2024-02-04T02:29:57;2.75;;;0.50;;
7703;SDS011;3894;49.700;10.770;2024-02-04T02:32:22;2.28;;;0.45;;
7703;SDS011;3894;49.700;10.770;2024-02-04T02:34:48;3.65;;;0.60;;
7703;SDS011;3894;49.700;10.770;2024-02-04T02:37:27;3.58;;;0.50;;
7703;SDS011;3894;49.700;10.770;2024-02-04T02:40:10;3.22;;;0.50;;
7703;SDS011;3894;49.700;10.770;2024-02-04T02:42:46;5.22;;;0.80;;
7703;SDS011;3894;49.700;10.770;2024-02-04T02:45:13;3.70;;;0.50;;
7703;SDS011;3894;49.700;10.770;2024-02-04T02:47:41;3.92;;;0.85;;
7703;SDS011;3894;49.700;10.770;2024-02-04T02:50:07;3.60;;;0.82;;
7703;SDS011;3894;49.700;10.770;2024-02-04T02:52:34;4.00;;;0.85;;
7703;SDS011;3894;49.700;10.770;2024-02-04T02:54:59;3.03;;;0.73;;
7703;SDS011;3894;49.700;10.770;2024-02-04T02:57:25;5.68;;;1.20;;
7703;SDS011;3894;49.700;10.770;2024-02-04T02:59:51;5.25;;;1.85;;
7703;SDS011;3894;49.700;10.770;2024-02-04T03:02:16;4.43;;;1.02;;
7703;SDS011;3894;49.700;10.770;2024-02-04T03:04:42;4.13;;;0.75;;
7703;SDS011;3894;49.700;10.770;2024-02-04T03:07:07;4.00;;;0.82;;
7703;SDS011;3894;49.700;10.770;2024-02-04T03:09:33;5.15;;;0.95;;
7703;SDS011;3894;49.700;10.770;2024-02-04T03:11:59;5.00;;;1.45;;
7703;SDS011;3894;49.700;10.770;2024-02-04T03:14:24;3.88;;;1.08;;
7703;SDS011;3894;49.700;10.770;2024-02-04T03:16:50;8.30;;;1.85;;
7703;SDS011;3894;49.700;10.770;2024-02-04T03:19:15;5.38;;;1.23;;
7703;SDS011;3894;49.700;10.770;2024-02-04T03:21:42;5.43;;;1.23;;
7703;SDS011;3894;49.700;10.770;2024-02-04T03:24:08;5.35;;;1.60;;
7703;SDS011;3894;49.700;10.770;2024-02-04T03:26:33;5.20;;;1.40;;
7703;SDS011;3894;49.700;10.770;2024-02-04T03:28:59;4.47;;;1.10;;
7703;SDS011;3894;49.700;10.770;2024-02-04T03:31:24;4.28;;;0.75;;
7703;SDS011;3894;49.700;10.770;2024-02-04T03:33:50;5.68;;;1.77;;
7703;SDS011;3894;49.700;10.770;2024-02-04T03:36:18;4.57;;;1.23;;
7703;SDS011;3894;49.700;10.770;2024-02-04T03:38:44;4.65;;;1.40;;
7703;SDS011;3894;49.700;10.770;2024-02-04T03:41:10;5.70;;;1.45;;
7703;SDS011;3894;49.700;10.770;2024-02-04T03:43:36;4.65;;;1.10;;
7703;SDS011;3894;49.700;10.770;2024-02-04T03:46:01;4.43;;;1.60;;
7703;SDS011;3894;49.700;10.770;2024-02-04T03:48:27;5.63;;;1.60;;
7703;SDS011;3894;49.700;10.770;2024-02-04T03:50:53;5.30;;;1.00;;
7703;SDS011;3894;49.700;10.770;2024-02-04T03:53:19;4.57;;;1.58;;
7703;SDS011;3894;49.700;10.770;2024-02-04T03:55:46;6.07;;;1.63;;
7703;SDS011;3894;49.700;10.770;2024-02-04T03:58:11;4.63;;;1.10;;
7703;SDS011;3894;49.700;10.770;2024-02-04T04:00:37;6.28;;;1.83;;
7703;SDS011;3894;49.700;10.770;2024-02-04T04:03:02;6.53;;;1.50;;
7703;SDS011;3894;49.700;10.770;2024-02-04T04:05:28;5.53;;;1.75;;
7703;SDS011;3894;49.700;10.770;2024-02-04T04:07:53;6.32;;;2.15;;
7703;SDS011;3894;49.700;10.770;2024-02-04T04:10:19;5.68;;;1.77;;
7703;SDS011;3894;49.700;10.770;2024-02-04T04:12:45;8.63;;;2.20;;
7703;SDS011;3894;49.700;10.770;2024-02-04T04:15:10;6.82;;;2.03;;
7703;SDS011;3894;49.700;10.770;2024-02-04T04:17:36;6.07;;;1.90;;
7703;SDS011;3894;49.700;10.770;2024-02-04T04:20:03;7.05;;;2.90;;
7703;SDS011;3894;49.700;10.770;2024-02-04T04:22:31;5.68;;;1.98;;
7703;SDS011;3894;49.700;10.770;2024-02-04T04:24:57;4.63;;;1.48;;
7703;SDS011;3894;49.700;10.770;2024-02-04T04:27:22;5.00;;;1.45;;
7703;SDS011;3894;49.700;10.770;2024-02-04T04:29:48;5.22;;;1.27;;
7703;SDS011;3894;49.700;10.770;2024-02-04T04:32:13;4.70;;;1.13;;
7703;SDS011;3894;49.700;10.770;2024-02-04T04:34:39;5.90;;;1.63;;
7703;SDS011;3894;49.700;10.770;2024-02-04T04:37:04;5.60;;;1.30;;
7703;SDS011;3894;49.700;10.770;2024-02-04T04:39:30;5.40;;;2.03;;
7703;SDS011;3894;49.700;10.770;2024-02-04T04:41:55;5.75;;;2.00;;
7703;SDS011;3894;49.700;10.770;2024-02-04T04:44:21;4.70;;;1.45;;
7703;SDS011;3894;49.700;10.770;2024-02-04T04:46:47;6.18;;;1.83;;
7703;SDS011;3894;49.700;10.770;2024-02-04T04:49:13;5.65;;;1.73;;
7703;SDS011;3894;49.700;10.770;2024-02-04T04:51:38;5.88;;;1.88;;
7703;SDS011;3894;49.700;10.770;2024-02-04T04:54:04;6.60;;;1.85;;
7703;SDS011;3894;49.700;10.770;2024-02-04T04:56:29;3.90;;;1.00;;
7703;SDS011;3894;49.700;10.770;2024-02-04T04:58:55;6.28;;;1.88;;
7703;SDS011;3894;49.700;10.770;2024-02-04T05:01:21;6.18;;;1.80;;
7703;SDS011;3894;49.700;10.770;2024-02-04T05:03:46;5.75;;;1.30;;
7703;SDS011;3894;49.700;10.770;2024-02-04T05:06:13;4.53;;;1.20;;
7703;SDS011;3894;49.700;10.770;2024-02-04T05:08:38;5.68;;;1.67;;
7703;SDS011;3894;49.700;10.770;2024-02-04T05:11:04;4.45;;;1.08;;
7703;SDS011;3894;49.700;10.770;2024-02-04T05:13:30;5.13;;;1.77;;
7703;SDS011;3894;49.700;10.770;2024-02-04T05:15:55;5.65;;;1.45;;
7703;SDS011;3894;49.700;10.770;2024-02-04T05:18:21;3.83;;;1.05;;
7703;SDS011;3894;49.700;10.770;2024-02-04T05:20:47;3.97;;;1.08;;
7703;SDS011;3894;49.700;10.770;2024-02-04T05:23:13;4.95;;;1.23;;
7703;SDS011;3894;49.700;10.770;2024-02-04T05:25:38;4.15;;;1.20;;
7703;SDS011;3894;49.700;10.770;2024-02-04T05:28:04;4.63;;;0.98;;
7703;SDS011;3894;49.700;10.770;2024-02-04T05:30:31;5.25;;;1.05;;
7703;SDS011;3894;49.700;10.770;2024-02-04T05:32:57;4.15;;;0.73;;
7703;SDS011;3894;49.700;10.770;2024-02-04T05:35:22;4.03;;;0.95;;
7703;SDS011;3894;49.700;10.770;2024-02-04T05:37:48;3.88;;;0.95;;
7703;SDS011;3894;49.700;10.770;2024-02-04T05:40:13;2.58;;;0.30;;
7703;SDS011;3894;49.700;10.770;2024-02-04T05:42:42;2.10;;;0.25;;
7703;SDS011;3894;49.700;10.770;2024-02-04T05:45:07;3.55;;;0.40;;
7703;SDS011;3894;49.700;10.770;2024-02-04T05:47:33;4.72;;;0.60;;
7703;SDS011;3894;49.700;10.770;2024-02-04T05:49:59;2.50;;;0.50;;
7703;SDS011;3894;49.700;10.770;2024-02-04T05:52:24;2.53;;;0.32;;
7703;SDS011;3894;49.700;10.770;2024-02-04T05:54:50;2.40;;;0.20;;
7703;SDS011;3894;49.700;10.770;2024-02-04T05:57:15;3.10;;;0.43;;
7703;SDS011;3894;49.700;10.770;2024-02-04T05:59:41;2.92;;;0.40;;
7703;SDS011;3894;49.700;10.770;2024-02-04T06:02:06;2.03;;;0.30;;
7703;SDS011;3894;49.700;10.770;2024-02-04T06:04:32;1.83;;;0.20;;
7703;SDS011;3894;49.700;10.770;2024-02-04T06:06:57;2.63;;;0.50;;
7703;SDS011;3894;49.700;10.770;2024-02-04T06:09:23;4.10;;;0.70;;
7703;SDS011;3894;49.700;10.770;2024-02-04T06:11:48;3.60;;;0.57;;
7703;SDS011;3894;49.700;10.770;2024-02-04T06:14:14;4.95;;;1.00;;
7703;SDS011;3894;49.700;10.770;2024-02-04T06:16:39;3.35;;;0.50;;
7703;SDS011;3894;49.700;10.770;2024-02-04T06:19:05;3.45;;;0.82;;
7703;SDS011;3894;49.700;10.770;2024-02-04T06:21:33;3.60;;;0.47;;
7703;SDS011;3894;49.700;10.770;2024-02-04T06:23:59;4.13;;;0.60;;
7703;SDS011;3894;49.700;10.770;2024-02-04T06:26:25;3.15;;;0.70;;
7703;SDS011;3894;49.700;10.770;2024-02-04T06:28:50;4.10;;;0.40;;
7703;SDS011;3894;49.700;10.770;2024-02-04T06:31:16;3.63;;;0.65;;
7703;SDS011;3894;49.700;10.770;2024-02-04T06:33:41;3.33;;;0.68;;
7703;SDS011;3894;49.700;10.770;2024-02-04T06:36:10;3.63;;;1.05;;
7703;SDS011;3894;49.700;10.770;2024-02-04T06:38:36;4.50;;;1.08;;
7703;SDS011;3894;49.700;10.770;2024-02-04T06:41:02;2.95;;;0.50;;
7703;SDS011;3894;49.700;10.770;2024-02-04T06:43:28;2.92;;;0.60;;
7703;SDS011;3894;49.700;10.770;2024-02-04T06:45:53;2.75;;;0.75;;
7703;SDS011;3894;49.700;10.770;2024-02-04T06:48:19;3.78;;;0.82;;
7703;SDS011;3894;49.700;10.770;2024-02-04T06:50:45;3.63;;;0.90;;
7703;SDS011;3894;49.700;10.770;2024-02-04T06:53:12;3.92;;;0.90;;
7703;SDS011;3894;49.700;10.770;2024-02-04T06:55:41;3.80;;;0.93;;
7703;SDS011;3894;49.700;10.770;2024-02-04T06:58:06;3.30;;;0.60;;
7703;SDS011;3894;49.700;10.770;2024-02-04T07:00:32;3.05;;;0.50;;
7703;SDS011;3894;49.700;10.770;2024-02-04T07:02:57;3.55;;;0.75;;
7703;SDS011;3894;49.700;10.770;2024-02-04T07:05:23;4.20;;;0.60;;
7703;SDS011;3894;49.700;10.770;2024-02-04T07:07:49;3.80;;;0.90;;
7703;SDS011;3894;49.700;10.770;2024-02-04T07:10:15;3.30;;;0.63;;
7703;SDS011;3894;49.700;10.770;2024-02-04T07:12:42;3.88;;;1.00;;
7703;SDS011;3894;49.700;10.770;2024-02-04T07:15:08;3.85;;;0.90;;
7703;SDS011;3894;49.700;10.770;2024-02-04T07:17:34;3.60;;;1.15;;
7703;SDS011;3894;49.700;10.770;2024-02-04T07:20:00;3.38;;;0.63;;
7703;SDS011;3894;49.700;10.770;2024-02-04T07:22:30;4.20;;;0.98;;
7703;SDS011;3894;49.700;10.770;2024-02-04T07:24:55;3.50;;;0.60;;
7703;SDS011;3894;49.700;10.770;2024-02-04T07:27:21;2.58;;;0.68;;
7703;SDS011;3894;49.700;10.770;2024-02-04T07:29:47;4.88;;;0.73;;
7703;SDS011;3894;49.700;10.770;2024-02-04T07:32:12;3.20;;;0.73;;
7703;SDS011;3894;49.700;10.770;2024-02-04T07:34:39;4.32;;;0.82;;
7703;SDS011;3894;49.700;10.770;2024-02-04T07:37:05;2.47;;;0.30;;
7703;SDS011;3894;49.700;10.770;2024-02-04T07:39:31;3.78;;;0.45;;
7703;SDS011;3894;49.700;10.770;2024-02-04T07:41:56;3.15;;;0.68;;
7703;SDS011;3894;49.700;10.770;2024-02-04T07:44:25;3.42;;;1.15;;
7703;SDS011;3894;49.700;10.770;2024-02-04T07:46:51;2.78;;;0.43;;
7703;SDS011;3894;49.700;10.770;2024-02-04T07:49:17;2.20;;;0.43;;
7703;SDS011;3894;49.700;10.770;2024-02-04T07:51:42;2.08;;;0.30;;
7703;SDS011;3894;49.700;10.770;2024-02-04T07:54:08;2.55;;;0.40;;
7703;SDS011;3894;49.700;10.770;2024-02-04T07:56:34;3.13;;;0.60;;
7703;SDS011;3894;49.700;10.770;2024-02-04T07:58:59;3.25;;;0.52;;
7703;SDS011;3894;49.700;10.770;2024-02-04T08:01:25;2.83;;;0.45;;
7703;SDS011;3894;49.700;10.770;2024-02-04T08:03:50;3.03;;;0.50;;
7703;SDS011;3894;49.700;10.770;2024-02-04T08:06:16;2.83;;;0.43;;
7703;SDS011;3894;49.700;10.770;2024-02-04T08:08:42;1.88;;;0.20;;
7703;SDS011;3894;49.700;10.770;2024-02-04T08:11:09;2.42;;;0.52;;
7703;SDS011;3894;49.700;10.770;2024-02-04T08:13:35;3.35;;;0.30;;
7703;SDS011;3894;49.700;10.770;2024-02-04T08:16:00;2.78;;;0.60;;
7703;SDS011;3894;49.700;10.770;2024-02-04T08:18:26;2.13;;;0.30;;
7703;SDS011;3894;49.700;10.770;2024-02-04T08:20:51;2.72;;;0.40;;
7703;SDS011;3894;49.700;10.770;2024-02-04T08:23:18;1.38;;;0.13;;
7703;SDS011;3894;49.700;10.770;2024-02-04T08:25:44;2.53;;;0.40;;
7703;SDS011;3894;49.700;10.770;2024-02-04T08:28:09;1.77;;;0.30;;
7703;SDS011;3894;49.700;10.770;2024-02-04T08:30:35;2.05;;;0.35;;
7703;SDS011;3894;49.700;10.770;2024-02-04T08:33:00;1.67;;;0.30;;
7703;SDS011;3894;49.700;10.770;2024-02-04T08:35:26;1.95;;;0.22;;
7703;SDS011;3894;49.700;10.770;2024-02-04T08:37:51;3.15;;;0.30;;
7703;SDS011;3894;49.700;10.770;2024-02-04T08:40:17;2.70;;;0.35;;
7703;SDS011;3894;49.700;10.770;2024-02-04T08:42:42;1.00;;;0.10;;
7703;SDS011;3894;49.700;10.770;2024-02-04T08:45:08;1.83;;;0.20;;
7703;SDS011;3894;49.700;10.770;2024-02-04T08:47:34;1.77;;;0.22;;
7703;SDS011;3894;49.700;10.770;2024-02-04T08:49:59;3.28;;;0.50;;
7703;SDS011;3894;49.700;10.770;2024-02-04T08:52:25;1.40;;;0.20;;
7703;SDS011;3894;49.700;10.770;2024-02-04T08:54:51;4.05;;;0.40;;
7703;SDS011;3894;49.700;10.770;2024-02-04T08:57:16;1.92;;;0.20;;
7703;SDS011;3894;49.700;10.770;2024-02-04T08:59:42;2.58;;;0.32;;
7703;SDS011;3894;49.700;10.770;2024-02-04T09:02:07;2.42;;;0.30;;
7703;SDS011;3894;49.700;10.770;2024-02-04T09:04:33;2.47;;;0.45;;
7703;SDS011;3894;49.700;10.770;2024-02-04T09:07:05;2.20;;;0.40;;
7703;SDS011;3894;49.700;10.770;2024-02-04T09:09:31;2.60;;;0.45;;
7703;SDS011;3894;49.700;10.770;2024-02-04T09:11:57;3.33;;;0.20;;
7703;SDS011;3894;49.700;10.770;2024-02-04T09:14:22;3.17;;;0.30;;
7703;SDS011;3894;49.700;10.770;2024-02-04T09:16:48;2.20;;;0.20;;
7703;SDS011;3894;49.700;10.770;2024-02-04T09:19:13;1.70;;;0.40;;
7703;SDS011;3894;49.700;10.770;2024-02-04T09:21:39;1.85;;;0.20;;
7703;SDS011;3894;49.700;10.770;2024-02-04T09:24:04;1.48;;;0.20;;
7703;SDS011;3894;49.700;10.770;2024-02-04T09:26:30;2.72;;;0.32;;
7703;SDS011;3894;49.700;10.770;2024-02-04T09:28:56;2.60;;;0.40;;
7703;SDS011;3894;49.700;10.770;2024-02-04T09:31:21;2.72;;;0.40;;
7703;SDS011;3894;49.700;10.770;2024-02-04T09:33:47;2.90;;;0.38;;
7703;SDS011;3894;49.700;10.770;2024-02-04T09:36:12;1.98;;;0.32;;
7703;SDS011;3894;49.700;10.770;2024-02-04T09:38:39;1.88;;;0.43;;
7703;SDS011;3894;49.700;10.770;2024-02-04T09:41:05;1.17;;;0.20;;
7703;SDS011;3894;49.700;10.770;2024-02-04T09:43:33;1.05;;;0.10;;
7703;SDS011;3894;49.700;10.770;2024-02-04T09:46:01;2.30;;;0.43;;
7703;SDS011;3894;49.700;10.770;2024-02-04T09:48:31;1.00;;;0.10;;
7703;SDS011;3894;49.700;10.770;2024-02-04T09:50:57;2.08;;;0.30;;
7703;SDS011;3894;49.700;10.770;2024-02-04T09:53:28;2.70;;;0.30;;
7703;SDS011;3894;49.700;10.770;2024-02-04T09:56:03;5.13;;;0.52;;
7703;SDS011;3894;49.700;10.770;2024-02-04T09:58:31;2.33;;;0.47;;
7703;SDS011;3894;49.700;10.770;2024-02-04T10:00:57;2.08;;;0.20;;
7703;SDS011;3894;49.700;10.770;2024-02-04T10:03:25;1.48;;;0.20;;
7703;SDS011;3894;49.700;10.770;2024-02-04T10:05:50;2.20;;;0.20;;
7703;SDS011;3894;49.700;10.770;2024-02-04T10:08:16;1.67;;;0.28;;
7703;SDS011;3894;49.700;10.770;2024-02-04T10:10:41;3.65;;;1.40;;
7703;SDS011;3894;49.700;10.770;2024-02-04T10:13:10;6.25;;;2.72;;
7703;SDS011;3894;49.700;10.770;2024-02-04T10:15:36;3.63;;;1.33;;
7703;SDS011;3894;49.700;10.770;2024-02-04T10:18:08;4.00;;;2.25;;
7703;SDS011;3894;49.700;10.770;2024-02-04T10:20:34;3.85;;;1.35;;
7703;SDS011;3894;49.700;10.770;2024-02-04T10:23:00;3.15;;;0.60;;
7703;SDS011;3894;49.700;10.770;2024-02-04T10:25:25;3.17;;;1.00;;
7703;SDS011;3894;49.700;10.770;2024-02-04T10:27:52;3.47;;;0.90;;
7703;SDS011;3894;49.700;10.770;2024-02-04T10:30:19;3.50;;;0.60;;
7703;SDS011;3894;49.700;10.770;2024-02-04T10:32:46;2.75;;;0.50;;
7703;SDS011;3894;49.700;10.770;2024-02-04T10:35:13;2.83;;;0.80;;
7703;SDS011;3894;49.700;10.770;2024-02-04T10:37:38;2.60;;;0.50;;
7703;SDS011;3894;49.700;10.770;2024-02-04T10:40:04;2.63;;;0.35;;
7703;SDS011;3894;49.700;10.770;2024-02-04T10:42:31;2.47;;;0.30;;
7703;SDS011;3894;49.700;10.770;2024-02-04T10:44:58;2.40;;;0.50;;
7703;SDS011;3894;49.700;10.770;2024-02-04T10:47:29;2.33;;;0.38;;
7703;SDS011;3894;49.700;10.770;2024-02-04T10:49:58;3.75;;;0.30;;
7703;SDS011;3894;49.700;10.770;2024-02-04T10:52:26;2.92;;;0.57;;
7703;SDS011;3894;49.700;10.770;2024-02-04T10:54:52;4.47;;;1.00;;
7703;SDS011;3894;49.700;10.770;2024-02-04T10:57:21;1.13;;;0.10;;
7703;SDS011;3894;49.700;10.770;2024-02-04T10:59:52;1.90;;;0.20;;
7703;SDS011;3894;49.700;10.770;2024-02-04T11:02:19;3.72;;;0.70;;
7703;SDS011;3894;49.700;10.770;2024-02-04T11:04:45;2.97;;;0.55;;
7703;SDS011;3894;49.700;10.770;2024-02-04T11:07:14;2.55;;;0.65;;
7703;SDS011;3894;49.700;10.770;2024-02-04T11:09:44;2.70;;;0.20;;
7703;SDS011;3894;49.700;10.770;2024-02-04T11:12:14;5.88;;;1.80;;
7703;SDS011;3894;49.700;10.770;2024-02-04T11:14:43;4.72;;;1.42;;
7703;SDS011;3894;49.700;10.770;2024-02-04T11:20:31;3.13;;;0.50;;
7703;SDS011;3894;49.700;10.770;2024-02-04T11:26:02;2.70;;;0.63;;
7703;SDS011;3894;49.700;10.770;2024-02-04T11:28:29;1.73;;;0.25;;
7703;SDS011;3894;49.700;10.770;2024-02-04T11:30:56;4.18;;;0.70;;
7703;SDS011;3894;49.700;10.770;2024-02-04T11:33:22;3.83;;;0.90;;
7703;SDS011;3894;49.700;10.770;2024-02-04T11:36:03;3.92;;;1.05;;
7703;SDS011;3894;49.700;10.770;2024-02-04T11:38:35;3.17;;;0.52;;
7703;SDS011;3894;49.700;10.770;2024-02-04T11:41:04;5.13;;;1.42;;
7703;SDS011;3894;49.700;10.770;2024-02-04T11:43:34;1.75;;;0.20;;
7703;SDS011;3894;49.700;10.770;2024-02-04T11:46:03;5.32;;;1.55;;
7703;SDS011;3894;49.700;10.770;2024-02-04T11:48:30;2.83;;;0.45;;
7703;SDS011;3894;49.700;10.770;2024-02-04T11:50:57;5.03;;;1.15;;
7703;SDS011;3894;49.700;10.770;2024-02-04T11:55:54;4.63;;;0.93;;
7703;SDS011;3894;49.700;10.770;2024-02-04T11:58:20;3.67;;;0.80;;
7703;SDS011;3894;49.700;10.770;2024-02-04T12:00:47;3.78;;;0.50;;
7703;SDS011;3894;49.700;10.770;2024-02-04T12:03:14;3.92;;;1.00;;
7703;SDS011;3894;49.700;10.770;2024-02-04T12:05:40;3.03;;;0.68;;
7703;SDS011;3894;49.700;10.770;2024-02-04T12:08:07;3.35;;;0.88;;
7703;SDS011;3894;49.700;10.770;2024-02-04T12:10:36;4.80;;;1.50;;
7703;SDS011;3894;49.700;10.770;2024-02-04T12:13:03;3.33;;;0.47;;
7703;SDS011;3894;49.700;10.770;2024-02-04T12:15:30;5.43;;;1.02;;
7703;SDS011;3894;49.700;10.770;2024-02-04T12:18:05;1.58;;;0.20;;
7703;SDS011;3894;49.700;10.770;2024-02-04T12:20:34;2.35;;;0.32;;
7703;SDS011;3894;49.700;10.770;2024-02-04T12:23:02;10.18;;;2.92;;
7703;SDS011;3894;49.700;10.770;2024-02-04T12:25:28;9.82;;;4.15;;
7703;SDS011;3894;49.700;10.770;2024-02-04T12:27:56;13.98;;;4.93;;
7703;SDS011;3894;49.700;10.770;2024-02-04T12:30:27;9.18;;;2.97;;
7703;SDS011;3894;49.700;10.770;2024-02-04T12:33:00;5.45;;;1.45;;
7703;SDS011;3894;49.700;10.770;2024-02-04T12:35:27;7.13;;;2.13;;
7703;SDS011;3894;49.700;10.770;2024-02-04T12:37:56;4.00;;;0.95;;
7703;SDS011;3894;49.700;10.770;2024-02-04T12:40:28;4.38;;;1.27;;
7703;SDS011;3894;49.700;10.770;2024-02-04T12:42:55;6.00;;;2.05;;
7703;SDS011;3894;49.700;10.770;2024-02-04T12:45:22;3.97;;;1.30;;
7703;SDS011;3894;49.700;10.770;2024-02-04T12:47:52;2.92;;;0.43;;
7703;SDS011;3894;49.700;10.770;2024-02-04T12:50:19;3.65;;;0.90;;
7703;SDS011;3894;49.700;10.770;2024-02-04T12:52:45;5.88;;;1.45;;
7703;SDS011;3894;49.700;10.770;2024-02-04T12:55:19;3.85;;;1.00;;
7703;SDS011;3894;49.700;10.770;2024-02-04T12:58:03;1.52;;;0.22;;
7703;SDS011;3894;49.700;10.770;2024-02-04T13:00:30;2.50;;;0.40;;
7703;SDS011;3894;49.700;10.770;2024-02-04T13:02:57;2.42;;;0.43;;
7703;SDS011;3894;49.700;10.770;2024-02-04T13:05:23;3.75;;;0.70;;
7703;SDS011;3894;49.700;10.770;2024-02-04T13:07:51;3.30;;;0.63;;
7703;SDS011;3894;49.700;10.770;2024-02-04T13:10:24;3.95;;;0.80;;
7703;SDS011;3894;49.700;10.770;2024-02-04T13:13:06;3.00;;;0.47;;
7703;SDS011;3894;49.700;10.770;2024-02-04T13:15:36;2.72;;;0.47;;
7703;SDS011;3894;49.700;10.770;2024-02-04T13:18:03;2.33;;;0.40;;
7703;SDS011;3894;49.700;10.770;2024-02-04T13:20:29;2.65;;;0.38;;
7703;SDS011;3894;49.700;10.770;2024-02-04T13:22:55;2.75;;;0.50;;
7703;SDS011;3894;49.700;10.770;2024-02-04T13:25:22;8.73;;;2.60;;
7703;SDS011;3894;49.700;10.770;2024-02-04T13:27:48;16.90;;;5.03;;
7703;SDS011;3894;49.700;10.770;2024-02-04T13:30:14;12.60;;;3.65;;
7703;SDS011;3894;49.700;10.770;2024-02-04T13:32:41;11.63;;;4.07;;
7703;SDS011;3894;49.700;10.770;2024-02-04T13:35:07;10.65;;;3.90;;
7703;SDS011;3894;49.700;10.770;2024-02-04T13:37:41;17.30;;;6.57;;
7703;SDS011;3894;49.700;10.770;2024-02-04T13:40:11;8.05;;;2.78;;
7703;SDS011;3894;49.700;10.770;2024-02-04T13:42:40;25.30;;;10.35;;
7703;SDS011;3894;49.700;10.770;2024-02-04T13:45:06;19.10;;;8.07;;
7703;SDS011;3894;49.700;10.770;2024-02-04T13:47:32;12.25;;;4.07;;
7703;SDS011;3894;49.700;10.770;2024-02-04T13:49:57;6.25;;;1.95;;
7703;SDS011;3894;49.700;10.770;2024-02-04T13:52:23;13.65;;;4.93;;
7703;SDS011;3894;49.700;10.770;2024-02-04T13:54:49;5.70;;;1.35;;
7703;SDS011;3894;49.700;10.770;2024-02-04T13:57:14;4.88;;;1.33;;
7703;SDS011;3894;49.700;10.770;2024-02-04T13:59:40;4.78;;;0.90;;
7703;SDS011;3894;49.700;10.770;2024-02-04T14:02:05;8.02;;;2.42;;
7703;SDS011;3894;49.700;10.770;2024-02-04T14:04:35;8.85;;;2.38;;
7703;SDS011;3894;49.700;10.770;2024-02-04T14:07:01;11.48;;;4.65;;
7703;SDS011;3894;49.700;10.770;2024-02-04T14:09:27;7.50;;;3.00;;
7703;SDS011;3894;49.700;10.770;2024-02-04T14:11:53;6.15;;;2.03;;
7703;SDS011;3894;49.700;10.770;2024-02-04T14:14:24;6.68;;;1.17;;
7703;SDS011;3894;49.700;10.770;2024-02-04T14:16:50;4.30;;;1.25;;
7703;SDS011;3894;49.700;10.770;2024-02-04T14:19:16;6.25;;;2.20;;
7703;SDS011;3894;49.700;10.770;2024-02-04T14:21:41;6.03;;;1.60;;
7703;SDS011;3894;49.700;10.770;2024-02-04T14:24:07;11.32;;;3.60;;
7703;SDS011;3894;49.700;10.770;2024-02-04T14:26:33;11.98;;;2.40;;
7703;SDS011;3894;49.700;10.770;2024-02-04T14:28:59;10.02;;;2.90;;
7703;SDS011;3894;49.700;10.770;2024-02-04T14:31:25;16.70;;;5.70;;
7703;SDS011;3894;49.700;10.770;2024-02-04T14:33:50;12.55;;;4.18;;
7703;SDS011;3894;49.700;10.770;2024-02-04T14:36:16;8.32;;;3.05;;
7703;SDS011;3894;49.700;10.770;2024-02-04T14:38:42;8.73;;;2.55;;
7703;SDS011;3894;49.700;10.770;2024-02-04T14:41:07;8.15;;;3.05;;
7703;SDS011;3894;49.700;10.770;2024-02-04T14:43:34;5.82;;;1.67;;
7703;SDS011;3894;49.700;10.770;2024-02-04T14:46:00;4.80;;;1.38;;
7703;SDS011;3894;49.700;10.770;2024-02-04T14:48:26;3.75;;;0.80;;
7703;SDS011;3894;49.700;10.770;2024-02-04T14:50:51;7.90;;;3.88;;
7703;SDS011;3894;49.700;10.770;2024-02-04T14:53:18;8.05;;;3.97;;
7703;SDS011;3894;49.700;10.770;2024-02-04T14:55:43;6.45;;;4.03;;
7703;SDS011;3894;49.700;10.770;2024-02-04T14:58:09;5.57;;;2.33;;
7703;SDS011;3894;49.700;10.770;2024-02-04T15:00:34;4.03;;;1.27;;
7703;SDS011;3894;49.700;10.770;2024-02-04T15:03:00;4.07;;;1.27;;
7703;SDS011;3894;49.700;10.770;2024-02-04T15:05:25;4.10;;;1.33;;
7703;SDS011;3894;49.700;10.770;2024-02-04T15:07:51;4.47;;;1.40;;